createdAt,value
2023-02-17T00:00:14.433Z,101559.38
2023-02-17T00:00:36.266Z,101563.72
2023-02-17T00:00:57.987Z,101555.84
2023-02-17T00:01:23.605Z,101565.56
2023-02-17T00:01:45.263Z,101567.31
2023-02-17T00:02:06.990Z,101562.16
2023-02-17T00:02:28.626Z,101557.28
2023-02-17T00:02:51.311Z,101553.78
2023-02-17T00:03:13.063Z,101559.94
2023-02-17T00:03:34.904Z,101560.72
2023-02-17T00:03:57.536Z,101558.88
2023-02-17T00:04:20.266Z,101565.03
2023-02-17T00:04:41.973Z,101573.09
2023-02-17T00:05:03.883Z,101561.06
2023-02-17T00:05:27.300Z,101574.81
2023-02-17T00:05:51.059Z,101573.75
2023-02-17T00:06:12.909Z,101566.38
2023-02-17T00:06:34.543Z,101567.09
2023-02-17T00:06:57.545Z,101572.38
2023-02-17T00:07:19.577Z,101563.38
2023-02-17T00:07:41.281Z,101557.09
2023-02-17T00:08:03.055Z,101565.78
2023-02-17T00:08:25.645Z,101559.75
2023-02-17T00:08:48.182Z,101548.28
2023-02-17T00:09:09.938Z,101560.41
2023-02-17T00:09:31.639Z,101563.91
2023-02-17T00:09:54.287Z,101562.28
2023-02-17T00:10:15.988Z,101561.28
2023-02-17T00:10:37.745Z,101562.94
2023-02-17T00:10:59.559Z,101560.22
2023-02-17T00:11:22.202Z,101566.47
2023-02-17T00:11:45.664Z,101565.69
2023-02-17T00:12:07.785Z,101568.34
2023-02-17T00:12:29.414Z,101556.09
2023-02-17T00:12:53.486Z,101562.47
2023-02-17T00:13:15.197Z,101560.59
2023-02-17T00:13:38.430Z,101565.88
2023-02-17T00:14:01.290Z,101542.94
2023-02-17T00:14:23.265Z,101562.38
2023-02-17T00:14:45.015Z,101565.81
2023-02-17T00:15:07.507Z,101558.69
2023-02-17T00:15:30.108Z,101561.31
2023-02-17T00:15:52.014Z,101556.75
2023-02-17T00:16:17.799Z,101556.00
2023-02-17T00:16:41.072Z,101560.13
2023-02-17T00:17:02.705Z,101567.81
2023-02-17T00:17:24.543Z,101563.28
2023-02-17T00:17:46.370Z,101552.44
2023-02-17T00:18:09.079Z,101558.50
2023-02-17T00:18:30.735Z,101552.28
2023-02-17T00:18:54.282Z,101557.59
2023-02-17T00:19:26.022Z,101558.31
2023-02-17T00:19:47.894Z,101548.25
2023-02-17T00:20:10.490Z,101569.47
2023-02-17T00:20:32.199Z,101564.22
2023-02-17T00:20:54.913Z,101564.25
2023-02-17T00:21:18.559Z,101562.34
2023-02-17T00:21:40.449Z,101567.53
2023-02-17T00:22:03.455Z,101560.47
2023-02-17T00:22:25.503Z,101543.50
2023-02-17T00:22:47.237Z,101552.81
2023-02-17T00:23:08.991Z,101555.81
2023-02-17T00:23:30.671Z,101550.78
2023-02-17T00:23:54.047Z,101556.72
2023-02-17T00:24:15.708Z,101543.31
2023-02-17T00:24:38.715Z,101553.59
2023-02-17T00:25:00.436Z,101558.75
2023-02-17T00:25:23.118Z,101551.53
2023-02-17T00:25:44.813Z,101557.88
2023-02-17T00:26:07.656Z,101557.94
2023-02-17T00:26:29.506Z,101547.19
2023-02-17T00:26:52.194Z,101560.44
2023-02-17T00:27:14.380Z,101551.94
2023-02-17T00:27:36.103Z,101552.97
2023-02-17T00:27:57.818Z,101539.63
2023-02-17T00:28:21.679Z,101537.97
2023-02-17T00:28:46.633Z,101553.00
2023-02-17T00:29:08.674Z,101554.16
2023-02-17T00:29:30.466Z,101555.81
2023-02-17T00:29:54.521Z,101545.44
2023-02-17T00:30:17.892Z,101549.59
2023-02-17T00:30:39.608Z,101547.63
2023-02-17T00:31:06.414Z,101548.53
2023-02-17T00:31:29.118Z,101548.50
2023-02-17T00:31:54.212Z,101544.72
2023-02-17T00:32:17.878Z,101550.94
2023-02-17T00:32:40.899Z,101544.72
2023-02-17T00:33:02.643Z,101545.41
2023-02-17T00:33:24.251Z,101547.06
2023-02-17T00:33:45.988Z,101543.38
2023-02-17T00:34:08.608Z,101540.59
2023-02-17T00:34:30.298Z,101544.06
2023-02-17T00:34:52.140Z,101544.81
2023-02-17T00:35:13.833Z,101541.47
2023-02-17T00:35:40.858Z,101542.28
2023-02-17T00:36:05.931Z,101540.34
2023-02-17T00:36:28.393Z,101537.59
2023-02-17T00:36:51.159Z,101533.88
2023-02-17T00:37:12.927Z,101539.97
2023-02-17T00:37:35.659Z,101532.06
2023-02-17T00:37:57.565Z,101541.69
2023-02-17T00:38:20.504Z,101533.56
2023-02-17T00:38:42.476Z,101539.72
2023-02-17T00:39:05.557Z,101526.94
2023-02-17T00:39:28.534Z,101538.19
2023-02-17T00:39:50.827Z,101534.50
2023-02-17T00:40:14.910Z,101540.53
2023-02-17T00:40:36.692Z,101534.31
2023-02-17T00:40:59.529Z,101530.50
2023-02-17T00:41:22.056Z,101535.50
2023-02-17T00:41:44.847Z,101540.38
2023-02-17T00:42:07.523Z,101545.88
2023-02-17T00:42:29.553Z,101541.41
2023-02-17T00:42:54.874Z,101538.47
2023-02-17T00:43:16.516Z,101531.38
2023-02-17T00:43:39.223Z,101523.44
2023-02-17T00:44:02.639Z,101541.75
2023-02-17T00:44:25.284Z,101542.50
2023-02-17T00:44:48.016Z,101534.31
2023-02-17T00:45:10.086Z,101536.00
2023-02-17T00:45:32.127Z,101537.56
2023-02-17T00:45:53.999Z,101530.25
2023-02-17T00:46:18.078Z,101539.97
2023-02-17T00:46:40.210Z,101543.44
2023-02-17T00:47:02.034Z,101541.84
2023-02-17T00:47:24.668Z,101536.88
2023-02-17T00:47:46.295Z,101546.47
2023-02-17T00:48:11.899Z,101539.63
2023-02-17T00:48:34.864Z,101548.25
2023-02-17T00:48:56.866Z,101538.41
2023-02-17T00:49:20.572Z,101546.31
2023-02-17T00:49:42.332Z,101547.38
2023-02-17T00:50:06.184Z,101543.94
2023-02-17T00:50:27.907Z,101551.03
2023-02-17T00:50:50.758Z,101545.78
2023-02-17T00:51:12.549Z,101536.13
2023-02-17T00:51:34.321Z,101548.41
2023-02-17T00:52:00.754Z,101550.16
2023-02-17T00:52:22.684Z,101542.94
2023-02-17T00:52:44.480Z,101539.28
2023-02-17T00:53:06.201Z,101541.00
2023-02-17T00:53:29.244Z,101544.38
2023-02-17T00:53:51.797Z,101543.41
2023-02-17T00:54:13.998Z,101539.09
2023-02-17T00:54:35.802Z,101542.53
2023-02-17T00:54:58.513Z,101546.97
2023-02-17T00:55:20.258Z,101536.28
2023-02-17T00:55:43.257Z,101544.34
2023-02-17T00:56:05.992Z,101546.81
2023-02-17T00:56:28.824Z,101545.19
2023-02-17T00:56:50.550Z,101543.25
2023-02-17T00:57:12.353Z,101541.28
2023-02-17T00:57:34.046Z,101548.59
2023-02-17T00:57:57.114Z,101545.16
2023-02-17T00:58:18.832Z,101538.91
2023-02-17T00:58:41.674Z,101546.75
2023-02-17T00:59:05.412Z,101550.03
2023-02-17T00:59:29.712Z,101549.91
2023-02-17T00:59:51.539Z,101551.59
2023-02-17T01:00:14.512Z,101545.47
2023-02-17T01:00:36.227Z,101545.38
2023-02-17T01:00:59.689Z,101547.97
2023-02-17T01:01:21.495Z,101544.59
2023-02-17T01:01:43.398Z,101546.63
2023-02-17T01:02:05.329Z,101550.16
2023-02-17T01:02:29.240Z,101551.13
2023-02-17T01:02:50.949Z,101551.13
2023-02-17T01:03:12.690Z,101542.28
2023-02-17T01:03:34.685Z,101551.09
2023-02-17T01:03:57.366Z,101551.84
2023-02-17T01:04:21.471Z,101545.53
2023-02-17T01:04:43.362Z,101554.31
2023-02-17T01:05:07.038Z,101548.94
2023-02-17T01:05:29.735Z,101547.03
2023-02-17T01:05:52.450Z,101555.81
2023-02-17T01:06:21.219Z,101550.41
2023-02-17T01:06:43.033Z,101543.44
2023-02-17T01:07:05.895Z,101548.94
2023-02-17T01:07:27.786Z,101555.22
2023-02-17T01:07:49.494Z,101543.59
2023-02-17T01:08:13.022Z,101543.09
2023-02-17T01:08:34.854Z,101544.97
2023-02-17T01:08:56.770Z,101544.81
2023-02-17T01:09:18.638Z,101550.94
2023-02-17T01:09:40.286Z,101538.19
2023-02-17T01:10:04.668Z,101533.94
2023-02-17T01:10:26.802Z,101535.16
2023-02-17T01:10:51.121Z,101531.38
2023-02-17T01:11:17.593Z,101538.31
2023-02-17T01:11:41.390Z,101536.38
2023-02-17T01:12:03.453Z,101540.25
2023-02-17T01:12:28.750Z,101539.06
2023-02-17T01:12:51.229Z,101535.38
2023-02-17T01:13:17.068Z,101533.00
2023-02-17T01:13:40.029Z,101527.44
2023-02-17T01:14:06.118Z,101537.03
2023-02-17T01:14:29.410Z,101521.13
2023-02-17T01:14:52.118Z,101523.75
2023-02-17T01:15:14.140Z,101530.47
2023-02-17T01:15:38.569Z,101536.53
2023-02-17T01:16:00.250Z,101526.59
2023-02-17T01:16:25.857Z,101527.63
2023-02-17T01:16:49.241Z,101528.38
2023-02-17T01:17:10.951Z,101530.00
2023-02-17T01:17:32.987Z,101528.84
2023-02-17T01:17:55.614Z,101532.22
2023-02-17T01:18:18.809Z,101524.09
2023-02-17T01:18:40.393Z,101527.56
2023-02-17T01:19:03.497Z,101531.97
2023-02-17T01:19:26.356Z,101527.41
2023-02-17T01:19:48.450Z,101521.97
2023-02-17T01:20:11.788Z,101527.34
2023-02-17T01:20:35.213Z,101537.16
2023-02-17T01:21:17.856Z,101522.09
2023-02-17T01:21:40.761Z,101521.94
2023-02-17T01:22:05.713Z,101523.69
2023-02-17T01:22:27.502Z,101512.94
2023-02-17T01:22:51.059Z,101527.78
2023-02-17T01:23:14.015Z,101512.63
2023-02-17T01:23:35.702Z,101524.03
2023-02-17T01:23:59.863Z,101526.63
2023-02-17T01:24:24.245Z,101526.69
2023-02-17T01:24:45.912Z,101527.72
2023-02-17T01:25:07.885Z,101529.59
2023-02-17T01:25:30.120Z,101515.38
2023-02-17T01:25:52.946Z,101519.84
2023-02-17T01:26:15.459Z,101517.53
2023-02-17T01:26:40.629Z,101522.16
2023-02-17T01:27:02.278Z,101521.25
2023-02-17T01:27:24.063Z,101520.72
2023-02-17T01:27:47.027Z,101526.84
2023-02-17T01:28:11.824Z,101514.25
2023-02-17T01:28:35.993Z,101521.28
2023-02-17T01:29:00.857Z,101519.34
2023-02-17T01:29:24.912Z,101507.75
2023-02-17T01:29:46.670Z,101513.91
2023-02-17T01:30:09.014Z,101513.81
2023-02-17T01:30:30.724Z,101515.53
2023-02-17T01:30:53.451Z,101508.31
2023-02-17T01:31:16.682Z,101511.81
2023-02-17T01:31:40.381Z,101511.75
2023-02-17T01:32:04.567Z,101513.47
2023-02-17T01:32:27.167Z,101505.06
2023-02-17T01:32:49.843Z,101517.66
2023-02-17T01:33:11.515Z,101508.81
2023-02-17T01:33:33.857Z,101506.84
2023-02-17T01:33:58.300Z,101505.75
2023-02-17T01:34:20.016Z,101504.56
2023-02-17T01:34:41.654Z,101506.22
2023-02-17T01:35:03.369Z,101506.22
2023-02-17T01:35:25.031Z,101497.25
2023-02-17T01:35:47.653Z,101501.66
2023-02-17T01:36:12.830Z,101501.72
2023-02-17T01:36:35.126Z,101506.31
2023-02-17T01:36:56.804Z,101506.53
2023-02-17T01:37:19.343Z,101494.34
2023-02-17T01:37:40.944Z,101501.28
2023-02-17T01:38:02.616Z,101504.88
2023-02-17T01:38:24.295Z,101498.72
2023-02-17T01:38:46.502Z,101503.75
2023-02-17T01:39:09.094Z,101502.75
2023-02-17T01:39:30.970Z,101503.50
2023-02-17T01:39:52.702Z,101509.69
2023-02-17T01:40:15.196Z,101504.88
2023-02-17T01:40:37.790Z,101500.91
2023-02-17T01:40:59.538Z,101498.31
2023-02-17T01:41:23.654Z,101498.47
2023-02-17T01:41:47.503Z,101501.38
2023-02-17T01:42:14.867Z,101495.78
2023-02-17T01:42:40.282Z,101491.97
2023-02-17T01:43:02.062Z,101499.34
2023-02-17T01:43:26.231Z,101494.41
2023-02-17T01:44:04.739Z,101496.03
2023-02-17T01:44:32.749Z,101499.31
2023-02-17T01:45:31.273Z,101503.53
2023-02-17T01:45:54.269Z,101479.47
2023-02-17T01:46:18.368Z,101502.13
2023-02-17T01:46:43.808Z,101496.19
2023-02-17T01:47:06.092Z,101500.78
2023-02-17T01:47:27.808Z,101490.28
2023-02-17T01:47:55.679Z,101495.59
2023-02-17T01:48:20.576Z,101497.28
2023-02-17T01:48:48.069Z,101502.88
2023-02-17T01:49:19.818Z,101499.47
2023-02-17T01:49:42.570Z,101493.00
2023-02-17T01:50:05.445Z,101493.78
2023-02-17T01:50:33.773Z,101500.06
2023-02-17T01:51:00.189Z,101495.53
2023-02-17T01:51:25.276Z,101494.34
2023-02-17T01:51:52.341Z,101497.66
2023-02-17T01:52:24.960Z,101499.47
2023-02-17T01:52:46.838Z,101491.41
2023-02-17T01:53:10.630Z,101498.41
2023-02-17T01:53:37.075Z,101498.28
2023-02-17T01:54:03.976Z,101492.00
2023-02-17T01:54:30.195Z,101491.84
2023-02-17T01:54:59.480Z,101494.31
2023-02-17T01:55:24.945Z,101488.97
2023-02-17T01:55:47.794Z,101494.81
2023-02-17T01:56:11.827Z,101493.06
2023-02-17T01:56:37.385Z,101484.34
2023-02-17T01:57:02.325Z,101492.09
2023-02-17T01:57:28.813Z,101490.19
2023-02-17T01:57:57.205Z,101478.59
2023-02-17T01:58:23.320Z,101493.56
2023-02-17T01:58:52.014Z,101489.22
2023-02-17T01:59:18.526Z,101486.44
2023-02-17T01:59:42.035Z,101488.44
2023-02-17T02:00:04.674Z,101493.69
2023-02-17T02:00:36.308Z,101487.34
2023-02-17T02:01:01.440Z,101478.06
2023-02-17T02:01:23.922Z,101489.06
2023-02-17T02:01:46.353Z,101482.13
2023-02-17T02:02:09.420Z,101479.38
2023-02-17T02:02:32.029Z,101478.78
2023-02-17T02:02:54.400Z,101482.28
2023-02-17T02:03:16.439Z,101483.19
2023-02-17T02:03:39.301Z,101473.47
2023-02-17T02:04:04.495Z,101483.31
2023-02-17T02:04:30.293Z,101482.28
2023-02-17T02:04:53.875Z,101476.00
2023-02-17T02:05:18.092Z,101485.63
2023-02-17T02:05:42.112Z,101476.84
2023-02-17T02:06:09.598Z,101476.84
2023-02-17T02:06:37.452Z,101473.91
2023-02-17T02:07:00.487Z,101481.16
2023-02-17T02:07:28.834Z,101475.81
2023-02-17T02:07:52.820Z,101474.19
2023-02-17T02:08:15.257Z,101479.44
2023-02-17T02:08:46.193Z,101479.25
2023-02-17T02:09:13.320Z,101471.03
2023-02-17T02:09:37.466Z,101478.19
2023-02-17T02:09:59.456Z,101479.78
2023-02-17T02:10:21.962Z,101475.50
2023-02-17T02:10:44.578Z,101476.69
2023-02-17T02:11:06.253Z,101481.34
2023-02-17T02:11:27.892Z,101483.31
2023-02-17T02:11:51.072Z,101475.19
2023-02-17T02:12:18.536Z,101470.69
2023-02-17T02:12:43.020Z,101470.72
2023-02-17T02:13:05.866Z,101482.06
2023-02-17T02:13:27.848Z,101477.47
2023-02-17T02:13:50.651Z,101475.47
2023-02-17T02:14:14.986Z,101476.22
2023-02-17T02:14:37.625Z,101484.97
2023-02-17T02:15:03.517Z,101478.63
2023-02-17T02:15:32.898Z,101475.88
2023-02-17T02:16:01.582Z,101474.16
2023-02-17T02:16:27.717Z,101465.94
2023-02-17T02:16:59.278Z,101478.28
2023-02-17T02:17:34.744Z,101471.03
2023-02-17T02:18:14.243Z,101476.13
2023-02-17T02:18:49.162Z,101473.97
2023-02-17T02:19:35.899Z,101473.66
2023-02-17T02:20:20.871Z,101474.34
2023-02-17T02:21:03.799Z,101466.19
2023-02-17T02:22:19.429Z,101471.13
2023-02-17T02:23:00.880Z,101467.63
2023-02-17T02:23:53.255Z,101473.69
2023-02-17T02:24:22.869Z,101476.91
2023-02-17T02:24:59.485Z,101472.22
2023-02-17T02:25:44.667Z,101470.78
2023-02-17T02:26:40.624Z,101465.59
2023-02-17T02:27:29.345Z,101467.50
2023-02-17T02:27:58.112Z,101467.47
2023-02-17T02:28:30.787Z,101463.00
2023-02-17T02:29:12.838Z,101469.25
2023-02-17T02:30:02.123Z,101467.19
2023-02-17T02:30:50.730Z,101463.41
2023-02-17T02:31:30.501Z,101470.38
2023-02-17T02:32:07.339Z,101465.03
2023-02-17T02:32:53.201Z,101468.19
2023-02-17T02:33:25.443Z,101463.69
2023-02-17T02:33:52.331Z,101468.94
2023-02-17T02:34:19.888Z,101463.69
2023-02-17T02:34:46.425Z,101462.78
2023-02-17T02:35:14.591Z,101462.06
2023-02-17T02:35:47.312Z,101460.13
2023-02-17T02:36:16.277Z,101466.97
2023-02-17T02:36:44.153Z,101464.13
2023-02-17T02:37:11.199Z,101462.13
2023-02-17T02:37:36.151Z,101456.81
2023-02-17T02:38:06.910Z,101455.56
2023-02-17T02:38:35.422Z,101465.88
2023-02-17T02:39:01.588Z,101464.19
2023-02-17T02:39:30.676Z,101452.47
2023-02-17T02:39:55.622Z,101453.34
2023-02-17T02:40:21.990Z,101458.53
2023-02-17T02:40:46.520Z,101454.22
2023-02-17T02:41:12.769Z,101455.66
2023-02-17T02:41:39.104Z,101459.81
2023-02-17T02:42:05.552Z,101464.91
2023-02-17T02:42:28.475Z,101455.28
2023-02-17T02:42:51.151Z,101457.59
2023-02-17T02:43:15.390Z,101459.16
2023-02-17T02:43:38.151Z,101458.94
2023-02-17T02:43:59.828Z,101464.13
2023-02-17T02:44:22.328Z,101453.31
2023-02-17T02:44:44.321Z,101462.16
2023-02-17T02:45:09.825Z,101457.84
2023-02-17T02:45:31.664Z,101453.16
2023-02-17T02:45:53.515Z,101456.63
2023-02-17T02:46:15.405Z,101460.88
2023-02-17T02:46:38.605Z,101451.31
2023-02-17T02:47:03.978Z,101458.88
2023-02-17T02:47:42.411Z,101461.59
2023-02-17T02:48:04.436Z,101453.66
2023-02-17T02:48:27.571Z,101461.22
2023-02-17T02:48:51.172Z,101459.47
2023-02-17T02:49:13.099Z,101460.31
2023-02-17T02:49:37.144Z,101458.22
2023-02-17T02:49:59.391Z,101463.44
2023-02-17T02:50:29.348Z,101456.97
2023-02-17T02:51:16.463Z,101460.31
2023-02-17T02:51:50.382Z,101453.00
2023-02-17T02:52:19.645Z,101456.31
2023-02-17T02:52:48.190Z,101452.59
2023-02-17T02:53:31.221Z,101448.84
2023-02-17T02:54:13.321Z,101455.28
2023-02-17T02:54:45.496Z,101442.28
2023-02-17T02:55:14.577Z,101444.91
2023-02-17T02:55:51.249Z,101451.88
2023-02-17T02:56:22.494Z,101457.75
2023-02-17T02:57:05.444Z,101446.69
2023-02-17T02:57:39.591Z,101447.38
2023-02-17T02:58:11.147Z,101441.47
2023-02-17T02:58:44.118Z,101445.53
2023-02-17T02:59:18.482Z,101448.94
2023-02-17T02:59:47.583Z,101445.06
2023-02-17T03:00:20.806Z,101444.00
2023-02-17T03:00:53.858Z,101440.28
2023-02-17T03:01:24.187Z,101433.94
2023-02-17T03:01:53.803Z,101438.19
2023-02-17T03:02:22.251Z,101447.38
2023-02-17T03:02:52.517Z,101448.66
2023-02-17T03:03:21.880Z,101441.41
2023-02-17T03:03:48.916Z,101443.13
2023-02-17T03:04:15.886Z,101438.84
2023-02-17T03:04:43.892Z,101443.47
2023-02-17T03:05:12.612Z,101443.50
2023-02-17T03:05:42.318Z,101441.56
2023-02-17T03:06:12.353Z,101438.72
2023-02-17T03:06:40.794Z,101444.31
2023-02-17T03:07:10.061Z,101446.75
2023-02-17T03:07:35.063Z,101442.31
2023-02-17T03:08:02.271Z,101444.88
2023-02-17T03:08:32.717Z,101445.63
2023-02-17T03:08:59.999Z,101448.28
2023-02-17T03:09:24.662Z,101430.25
2023-02-17T03:09:48.088Z,101437.47
2023-02-17T03:10:10.803Z,101436.66
2023-02-17T03:10:32.483Z,101437.41
2023-02-17T03:10:55.003Z,101438.06
2023-02-17T03:11:32.154Z,101425.50
2023-02-17T03:11:57.421Z,101444.59
2023-02-17T03:12:21.416Z,101426.84
2023-02-17T03:12:43.584Z,101431.97
2023-02-17T03:13:07.577Z,101429.13
2023-02-17T03:13:29.574Z,101432.59
2023-02-17T03:13:52.545Z,101441.47
2023-02-17T03:14:17.694Z,101432.75
2023-02-17T03:14:40.368Z,101441.13
2023-02-17T03:15:08.533Z,101435.72
2023-02-17T03:15:33.317Z,101431.25
2023-02-17T03:15:55.974Z,101436.38
2023-02-17T03:16:18.602Z,101431.81
2023-02-17T03:16:43.455Z,101429.97
2023-02-17T03:17:05.658Z,101436.91
2023-02-17T03:17:31.135Z,101436.72
2023-02-17T03:17:57.846Z,101435.75
2023-02-17T03:18:19.878Z,101427.63
2023-02-17T03:18:42.224Z,101439.09
2023-02-17T03:19:05.068Z,101438.19
2023-02-17T03:19:29.126Z,101430.72
2023-02-17T03:19:51.287Z,101438.31
2023-02-17T03:20:14.232Z,101439.97
2023-02-17T03:20:39.560Z,101436.28
2023-02-17T03:21:06.934Z,101441.88
2023-02-17T03:21:35.693Z,101434.06
2023-02-17T03:22:05.307Z,101438.50
2023-02-17T03:22:32.502Z,101441.78
2023-02-17T03:22:54.674Z,101432.97
2023-02-17T03:23:16.373Z,101436.94
2023-02-17T03:23:38.050Z,101430.81
2023-02-17T03:24:00.945Z,101425.66
2023-02-17T03:24:23.591Z,101442.56
2023-02-17T03:24:45.443Z,101434.41
2023-02-17T03:25:07.835Z,101442.19
2023-02-17T03:25:30.507Z,101435.09
2023-02-17T03:25:52.488Z,101433.31
2023-02-17T03:26:14.139Z,101428.16
2023-02-17T03:26:35.967Z,101437.19
2023-02-17T03:26:58.533Z,101425.50
2023-02-17T03:27:20.176Z,101423.47
2023-02-17T03:27:43.162Z,101419.75
2023-02-17T03:28:05.570Z,101423.94
2023-02-17T03:28:28.292Z,101421.50
2023-02-17T03:28:50.334Z,101419.69
2023-02-17T03:29:13.052Z,101421.34
2023-02-17T03:29:34.805Z,101422.22
2023-02-17T03:29:57.352Z,101417.72
2023-02-17T03:30:19.397Z,101423.59
2023-02-17T03:30:41.417Z,101428.75
2023-02-17T03:31:03.304Z,101422.50
2023-02-17T03:31:26.103Z,101424.13
2023-02-17T03:31:47.896Z,101428.44
2023-02-17T03:32:10.079Z,101429.28
2023-02-17T03:32:31.782Z,101427.72
2023-02-17T03:32:55.929Z,101423.19
2023-02-17T03:33:17.549Z,101413.47
2023-02-17T03:33:39.217Z,101429.38
2023-02-17T03:34:01.164Z,101418.72
2023-02-17T03:34:24.020Z,101423.97
2023-02-17T03:34:45.716Z,101429.22
2023-02-17T03:35:08.046Z,101422.00
2023-02-17T03:35:29.895Z,101416.66
2023-02-17T03:35:52.975Z,101419.41
2023-02-17T03:36:15.619Z,101418.59
2023-02-17T03:36:37.706Z,101418.72
2023-02-17T03:36:59.566Z,101414.13
2023-02-17T03:37:22.194Z,101414.88
2023-02-17T03:37:43.993Z,101419.25
2023-02-17T03:38:05.589Z,101412.25
2023-02-17T03:38:28.529Z,101415.88
2023-02-17T03:38:50.242Z,101421.13
2023-02-17T03:39:11.849Z,101421.06
2023-02-17T03:39:33.498Z,101412.00
2023-02-17T03:39:56.455Z,101412.91
2023-02-17T03:40:18.346Z,101415.72
2023-02-17T03:40:40.076Z,101421.97
2023-02-17T03:41:01.800Z,101419.41
2023-02-17T03:41:25.032Z,101419.34
2023-02-17T03:41:46.726Z,101409.53
2023-02-17T03:42:08.355Z,101424.66
2023-02-17T03:42:29.991Z,101414.91
2023-02-17T03:42:52.578Z,101424.13
2023-02-17T03:43:14.719Z,101413.53
2023-02-17T03:43:36.621Z,101430.47
2023-02-17T03:43:58.231Z,101425.88
2023-02-17T03:44:21.142Z,101418.63
2023-02-17T03:44:42.768Z,101426.59
2023-02-17T03:45:05.041Z,101424.69
2023-02-17T03:45:26.867Z,101423.06
2023-02-17T03:45:49.506Z,101420.34
2023-02-17T03:46:12.139Z,101416.63
2023-02-17T03:46:33.914Z,101408.56
2023-02-17T03:46:55.586Z,101417.34
2023-02-17T03:47:18.511Z,101412.81
2023-02-17T03:47:40.300Z,101422.47
2023-02-17T03:48:03.479Z,101417.16
2023-02-17T03:48:27.247Z,101419.78
2023-02-17T03:48:49.095Z,101417.03
2023-02-17T03:49:13.027Z,101430.38
2023-02-17T03:49:34.721Z,101425.00
2023-02-17T03:49:56.365Z,101419.59
2023-02-17T03:50:18.549Z,101427.56
2023-02-17T03:50:41.637Z,101420.59
2023-02-17T03:51:10.525Z,101417.00
2023-02-17T03:51:33.897Z,101411.66
2023-02-17T03:51:58.083Z,101415.06
2023-02-17T03:52:19.858Z,101421.34
2023-02-17T03:52:41.782Z,101423.13
2023-02-17T03:53:05.009Z,101418.91
2023-02-17T03:53:27.714Z,101430.66
2023-02-17T03:53:50.545Z,101427.19
2023-02-17T03:54:12.305Z,101427.16
2023-02-17T03:54:34.075Z,101415.59
2023-02-17T03:54:56.706Z,101426.06
2023-02-17T03:55:18.394Z,101411.06
2023-02-17T03:55:40.142Z,101425.19
2023-02-17T03:56:01.723Z,101422.41
2023-02-17T03:56:24.625Z,101416.91
2023-02-17T03:56:46.423Z,101426.78
2023-02-17T03:57:08.704Z,101414.34
2023-02-17T03:57:31.851Z,101411.00
2023-02-17T03:57:54.473Z,101418.91
2023-02-17T03:58:16.086Z,101413.78
2023-02-17T03:58:39.029Z,101420.00
2023-02-17T03:59:01.642Z,101411.06
2023-02-17T03:59:23.572Z,101417.50
2023-02-17T03:59:45.622Z,101420.50
2023-02-17T04:00:08.326Z,101422.31
2023-02-17T04:00:38.952Z,101424.22
2023-02-17T04:01:01.763Z,101416.41
2023-02-17T04:01:24.365Z,101419.88
2023-02-17T04:01:46.467Z,101414.63
2023-02-17T04:02:09.044Z,101421.59
2023-02-17T04:02:30.651Z,101412.09
2023-02-17T04:02:52.223Z,101411.06
2023-02-17T04:03:15.156Z,101414.41
2023-02-17T04:03:37.725Z,101416.97
2023-02-17T04:04:00.429Z,101408.22
2023-02-17T04:04:22.232Z,101411.47
2023-02-17T04:04:43.945Z,101414.09
2023-02-17T04:05:06.213Z,101407.84
2023-02-17T04:05:29.165Z,101409.00
2023-02-17T04:05:52.417Z,101408.94
2023-02-17T04:06:15.536Z,101400.03
2023-02-17T04:06:38.270Z,101410.59
2023-02-17T04:06:59.947Z,101406.09
2023-02-17T04:07:21.620Z,101418.38
2023-02-17T04:07:45.984Z,101419.06
2023-02-17T04:08:08.646Z,101411.78
2023-02-17T04:08:30.281Z,101415.22
2023-02-17T04:08:52.014Z,101415.09
2023-02-17T04:09:13.620Z,101415.03
2023-02-17T04:09:36.257Z,101413.19
2023-02-17T04:09:57.944Z,101419.31
2023-02-17T04:10:19.711Z,101423.00
2023-02-17T04:10:41.379Z,101421.38
2023-02-17T04:11:06.002Z,101416.84
2023-02-17T04:11:27.673Z,101424.13
2023-02-17T04:11:49.601Z,101422.38
2023-02-17T04:12:12.220Z,101430.50
2023-02-17T04:12:33.893Z,101425.94
2023-02-17T04:12:55.935Z,101432.09
2023-02-17T04:13:17.568Z,101426.59
2023-02-17T04:13:40.896Z,101425.69
2023-02-17T04:14:02.605Z,101424.69
2023-02-17T04:14:24.212Z,101429.06
2023-02-17T04:14:45.831Z,101436.47
2023-02-17T04:15:09.433Z,101426.59
2023-02-17T04:15:31.358Z,101427.53
2023-02-17T04:15:54.022Z,101434.63
2023-02-17T04:16:15.664Z,101426.47
2023-02-17T04:16:39.125Z,101412.25
2023-02-17T04:17:00.775Z,101432.88
2023-02-17T04:17:22.442Z,101425.53
2023-02-17T04:17:44.071Z,101434.34
2023-02-17T04:18:05.791Z,101427.19
2023-02-17T04:18:29.821Z,101422.69
2023-02-17T04:18:51.409Z,101431.53
2023-02-17T04:19:13.178Z,101433.25
2023-02-17T04:19:34.871Z,101424.59
2023-02-17T04:19:56.548Z,101422.66
2023-02-17T04:20:19.376Z,101419.78
2023-02-17T04:20:41.207Z,101418.72
2023-02-17T04:21:03.638Z,101409.66
2023-02-17T04:21:25.566Z,101423.94
2023-02-17T04:21:48.197Z,101428.72
2023-02-17T04:22:10.137Z,101423.38
2023-02-17T04:22:31.944Z,101424.00
2023-02-17T04:22:53.526Z,101413.28
2023-02-17T04:23:16.273Z,101416.97
2023-02-17T04:23:38.305Z,101426.06
2023-02-17T04:24:00.601Z,101423.19
2023-02-17T04:24:23.243Z,101425.81
2023-02-17T04:24:44.908Z,101418.41
2023-02-17T04:25:06.779Z,101425.41
2023-02-17T04:25:28.354Z,101429.03
2023-02-17T04:25:51.004Z,101419.19
2023-02-17T04:26:12.871Z,101424.69
2023-02-17T04:26:34.536Z,101426.47
2023-02-17T04:26:56.183Z,101415.97
2023-02-17T04:27:18.787Z,101415.75
2023-02-17T04:27:40.352Z,101416.28
2023-02-17T04:28:02.151Z,101421.56
2023-02-17T04:28:23.931Z,101424.91
2023-02-17T04:28:45.564Z,101422.28
2023-02-17T04:29:08.158Z,101418.72
2023-02-17T04:29:29.831Z,101425.66
2023-02-17T04:29:52.060Z,101422.94
2023-02-17T04:30:15.177Z,101418.38
2023-02-17T04:30:36.917Z,101425.34
2023-02-17T04:31:00.898Z,101429.63
2023-02-17T04:31:25.900Z,101436.97
2023-02-17T04:31:47.737Z,101431.00
2023-02-17T04:32:09.422Z,101423.88
2023-02-17T04:32:32.110Z,101429.81
2023-02-17T04:32:53.773Z,101413.91
2023-02-17T04:33:16.277Z,101427.72
2023-02-17T04:33:39.210Z,101433.19
2023-02-17T04:34:00.790Z,101424.13
2023-02-17T04:34:23.537Z,101432.00
2023-02-17T04:34:45.164Z,101423.88
2023-02-17T04:35:07.703Z,101423.94
2023-02-17T04:35:29.388Z,101427.31
2023-02-17T04:35:59.332Z,101433.78
2023-02-17T04:36:21.045Z,101429.97
2023-02-17T04:36:44.424Z,101430.75
2023-02-17T04:37:06.746Z,101436.78
2023-02-17T04:37:28.663Z,101435.84
2023-02-17T04:37:50.940Z,101432.31
2023-02-17T04:38:16.203Z,101428.69
2023-02-17T04:38:38.596Z,101418.91